Accueil
METAR-TAF:

METAR-TAF

Aéroports :

Lyndonville, Vermont, États-Unis

latitude: 44-34-09N, longitude: 072-01-05W, altitude: 362 m

Observation

Le bulletin a été fait il y a 15 minutes, à 08:35 UTC
Vent 7 kt de ouest/sud-ouest
Température -2°C
Humidité 86%
Pression 1016 hPa
Visibilité: 4.8 km
Nuages épars à une hauteur de 1100 ft
Nuages fragmentés à une hauteur de 2900 ft
Ciel couvert à une hauteur de 3600 ft
neige faible

METAR: KCDA 170835Z AUTO 25007KT 3SM -SN SCT011 BKN029 OVC036 M02/M04 A3001 RMK AO2 T10241045

Heure: 03:50 (08:50 UTC)


TAF: absent

Observations et prévisions météorologiques de plus de 4000 aéroports (messages METAR et TAF).

Les stations disponibles sont représentées par des disques jaunes et rouges sur la carte.

Passer la souris dessus pour voir le nom de la station.

Cliquer dessus pour voir les observations et prévisions météorologiques.

Pour changer de carte: cliquez sur les boutons verts avec une croix noire pour zoomer, sur le bouton vert avec un tiret pour effectuer un zoom arrière, ou sur les flèches vertes pour les cartes adjacentes.


METAR-TAF: